Hart, Minnesota
Current Conditions -  °F | °C
As of 6:54 AM on Friday 19 Dec 2014 (Local Time) from KONA Reporting Station
Overcast Overcast  
Wind Chill: 25°   Ceiling: 9000
Heat Index: 25°   Visibility: 10mi
Dew Point: 19°   Wind: 3mph
Humidity: 80%   Direction: 150°SSE
Pressure: 30.3"   Gusts: NA
Location:  43.8851°N, 91.7705°W
Report Text: KONA 191254Z AUTO 15003KT 10SM OVC090 M04/M07 A3030 RMK AO2
Loading
Personal Weather Stations






























Interactive Weather Map New forecast layout! Learn more

10-Day Weather Forecast

Advertisements
Track Severe Weather on mobile